FAGG

George Airport

George, South Africa
METAR FAGG 252200Z AUTO 03003KT 9999 FEW007/// 11/10 Q1022
Observed Flight Rules
May-25 @ 22:00 UTC (23 minutes ago) Visual Flight Rules
Wind Visibility Clouds
30° at 3 knots 10,000+ meters
  • Few at 700' AGL
Temperatures Readings
Current 11°C / 52°F
Dewpoint 10°C / 50°F
Humidity 94%
Altimeter 30.18" Hg
Pressure 1022 hPa
Elevation 193
METAR FAGG 252200Z AUTO 03003KT 9999 FEW007/// 11/10 Q1022
Observed Flight Rules
May-25 @ 22:00 UTC
(23 minutes ago)
VFR
Wind Visibility
30° at 3 knots 10,000+ meters
Clouds
  • Few at 700' AGL
Temperature Dewpoint
11°C / 52°F 10°C / 50°F
Humidity Altimeter Pressure
94% 30.18" Hg 1022 hPa